Airfield :
LOGIN :

Register | Disclaimer

   EN    FR    IT 

 










Legend :    VFR   Marginal VFR   IFR   Intensive IFR   Very Intensive IFR
Visi :
Ceiling :
>= 8 km
>= 3000ft
5 to 8 km
1000 to 3000 ft
1500m to 5 km
500 to 1000 ft
800 to 1500m
200 to 500 ft
< 800m
< 200 ft
Symbols :   Thunderstorms  Fog  Heavy snow  Heavy precipitations  Wind > 20 kt
SIGMETs :     Misc.  Thunderstorms  Icing  Turbulence  Mountain Waves  Volcanic Ashes






- Airport Elevation : 120 ft
- IATA code : MME


EGNV - Durham Tees valley

CURRENT METAR :
  • 221450Z 15008KT 9999 FEW020 SCT034 17/12 Q1008

EXPIRED METARs :
  • 221420Z 18007KT 9999 FEW020 SCT034 16/11 Q1008
  • 221350Z 17008KT 9999 FEW020 BKN035 16/11 Q1009
  • 221320Z 18012KT 9999 FEW020 SCT034 17/11 Q1009
  • 221250Z 18011KT 9999 FEW020 SCT032 17/11 Q1009
  • 221220Z 18011KT 9999 FEW020 SCT032 16/11 Q1009

TAF TAF EGNV
Valid from the 22 at 15:00 until the 22 at 21:00 UTC


221357Z 2215/2221 19010KT 9999 SCT030
PROB30
TEMPO 2215/2220 7000 SHRA BKN014
ATIS : +44 9012 018 111



MET'MAP, your aeronautical weather chart ! - Copyright ORBIFLY December 2007 - Disclaimer

ORBIFLY MET'MAP TEAM :

Programming & Development : Alexandra Zaïnal
Original concept : Baudouin d'Aumeries
Technical & hardware support : Manuel Goepfert
Assistance : Marc-Olivier Méhu

Contact : metmap@orbifly.com




SOURCES & CREDITS :

   NOAA